createdAt,value
2017-05-13T00:00:31.149Z,0
2017-05-13T00:01:31.264Z,0
2017-05-13T00:02:30.861Z,0
2017-05-13T00:03:30.867Z,0
2017-05-13T00:04:31.233Z,0
2017-05-13T00:05:30.881Z,0
2017-05-13T00:06:30.881Z,0
2017-05-13T00:07:31.204Z,0
2017-05-13T00:08:30.899Z,0
2017-05-13T00:09:30.907Z,0
2017-05-13T00:10:31.226Z,0
2017-05-13T00:11:30.918Z,0
2017-05-13T00:12:30.927Z,0
2017-05-13T00:13:31.246Z,0
2017-05-13T00:14:31.256Z,0
2017-05-13T00:15:30.946Z,0
2017-05-13T00:16:31.265Z,0
2017-05-13T00:17:30.652Z,0
2017-05-13T00:18:30.975Z,0
2017-05-13T00:19:31.338Z,0
2017-05-13T00:20:30.988Z,0
2017-05-13T00:21:31.351Z,0
2017-05-13T00:22:31.364Z,0
2017-05-13T00:23:31.370Z,0
2017-05-13T00:24:31.327Z,0
2017-05-13T00:25:31.070Z,0
2017-05-13T00:26:31.029Z,0
2017-05-13T00:27:31.036Z,0
2017-05-13T00:28:31.404Z,0
2017-05-13T00:29:31.055Z,0
2017-05-13T00:30:31.366Z,0
2017-05-13T00:31:31.372Z,0
2017-05-13T00:32:31.129Z,0
2017-05-13T00:33:31.080Z,0
2017-05-13T00:34:30.773Z,0
2017-05-13T00:35:30.788Z,0
2017-05-13T00:36:31.409Z,0
2017-05-13T00:37:31.418Z,0
2017-05-13T00:38:31.426Z,0
2017-05-13T00:39:31.435Z,0
2017-05-13T00:40:31.494Z,0
2017-05-13T00:41:31.449Z,0
2017-05-13T00:42:31.452Z,0
2017-05-13T00:43:31.515Z,0
2017-05-13T00:44:31.162Z,0
2017-05-13T00:45:31.215Z,0
2017-05-13T00:46:31.483Z,0
2017-05-13T00:47:31.485Z,0
2017-05-13T00:48:31.496Z,0
2017-05-13T00:49:31.237Z,0
2017-05-13T00:50:31.510Z,0
2017-05-13T00:51:31.208Z,0
2017-05-13T00:52:31.581Z,0
2017-05-13T00:53:31.583Z,0
2017-05-13T00:54:31.584Z,0
2017-05-13T00:55:31.608Z,0
2017-05-13T00:56:31.604Z,0
2017-05-13T00:57:31.572Z,0
2017-05-13T00:58:31.257Z,0
2017-05-13T00:59:31.573Z,0
2017-05-13T01:00:31.626Z,0
2017-05-13T01:01:31.279Z,0
2017-05-13T01:02:31.284Z,0
2017-05-13T01:03:31.603Z,0
2017-05-13T01:04:31.612Z,0
2017-05-13T01:05:31.630Z,0
2017-05-13T01:06:31.316Z,0
2017-05-13T01:07:31.370Z,0
2017-05-13T01:08:31.737Z,0
2017-05-13T01:09:31.388Z,0
2017-05-13T01:10:31.341Z,0
2017-05-13T01:11:31.658Z,0
2017-05-13T01:12:31.664Z,0
2017-05-13T01:13:31.674Z,0
2017-05-13T01:14:31.421Z,0
2017-05-13T01:15:31.121Z,0
2017-05-13T01:16:31.384Z,0
2017-05-13T01:17:31.704Z,0
2017-05-13T01:18:31.133Z,0
2017-05-13T01:19:31.402Z,0
2017-05-13T01:20:31.727Z,0
2017-05-13T01:21:31.418Z,0
2017-05-13T01:22:31.428Z,0
2017-05-13T01:23:31.486Z,0
2017-05-13T01:24:31.809Z,0
2017-05-13T01:25:31.758Z,0
2017-05-13T01:26:31.812Z,0
2017-05-13T01:27:31.776Z,0
2017-05-13T01:28:31.470Z,0
2017-05-13T01:29:31.784Z,0
2017-05-13T01:30:31.845Z,0
2017-05-13T01:31:32.148Z,0
2017-05-13T01:32:31.803Z,0
2017-05-13T01:33:31.812Z,0
2017-05-13T01:34:31.878Z,0
2017-05-13T01:35:31.828Z,0
2017-05-13T01:36:31.524Z,0
2017-05-13T01:37:31.837Z,0
2017-05-13T01:38:31.279Z,0
2017-05-13T01:39:31.906Z,0
2017-05-13T01:40:31.550Z,0
2017-05-13T01:41:31.869Z,0
2017-05-13T01:42:31.919Z,0
2017-05-13T01:43:31.931Z,0
2017-05-13T01:44:31.578Z,0
2017-05-13T01:45:31.902Z,0
2017-05-13T01:46:31.596Z,0
2017-05-13T01:47:31.605Z,0
2017-05-13T01:48:31.615Z,0
2017-05-13T01:49:31.924Z,0
2017-05-13T01:50:31.932Z,0
2017-05-13T01:51:31.627Z,0
2017-05-13T01:52:31.992Z,0
2017-05-13T01:53:31.956Z,0
2017-05-13T01:54:32.013Z,0
2017-05-13T01:55:31.345Z,0
2017-05-13T01:56:31.714Z,0
2017-05-13T01:57:31.991Z,0
2017-05-13T01:58:31.992Z,0
2017-05-13T01:59:32.043Z,0
2017-05-13T02:00:31.744Z,0
2017-05-13T02:01:31.750Z,0
2017-05-13T02:02:31.414Z,0
2017-05-13T02:03:31.713Z,0
2017-05-13T02:04:32.027Z,0
2017-05-13T02:05:32.037Z,0
2017-05-13T02:06:32.047Z,0
2017-05-13T02:07:31.426Z,0
2017-05-13T02:08:32.057Z,0
2017-05-13T02:09:31.751Z,0
2017-05-13T02:10:31.769Z,0
2017-05-13T02:11:31.767Z,0
2017-05-13T02:12:31.774Z,0
2017-05-13T02:13:31.790Z,0
2017-05-13T02:14:32.107Z,0
2017-05-13T02:15:31.847Z,0
2017-05-13T02:16:31.801Z,0
2017-05-13T02:17:31.812Z,0
2017-05-13T02:18:32.132Z,0
2017-05-13T02:19:32.136Z,0
2017-05-13T02:20:31.885Z,0
2017-05-13T02:21:31.842Z,0
2017-05-13T02:22:32.160Z,0
2017-05-13T02:23:32.162Z,0
2017-05-13T02:24:31.598Z,0
2017-05-13T02:25:31.867Z,0
2017-05-13T02:26:31.874Z,0
2017-05-13T02:27:31.879Z,0
2017-05-13T02:28:32.204Z,0
2017-05-13T02:29:32.211Z,0
2017-05-13T02:30:32.214Z,0
2017-05-13T02:31:31.594Z,0
2017-05-13T02:32:31.659Z,0
2017-05-13T02:33:32.238Z,0
2017-05-13T02:34:31.936Z,0
2017-05-13T02:35:32.255Z,0
2017-05-13T02:36:31.997Z,0
2017-05-13T02:37:32.259Z,0
2017-05-13T02:38:32.268Z,0
2017-05-13T02:39:32.289Z,0
2017-05-13T02:40:32.023Z,0
2017-05-13T02:41:31.980Z,0
2017-05-13T02:42:31.999Z,0
2017-05-13T02:43:32.300Z,0
2017-05-13T02:44:31.689Z,0
2017-05-13T02:45:32.006Z,0
2017-05-13T02:46:32.334Z,0
2017-05-13T02:47:32.333Z,0
2017-05-13T02:48:32.346Z,0
2017-05-13T02:49:32.349Z,0
2017-05-13T02:50:32.413Z,0
2017-05-13T02:51:32.047Z,0
2017-05-13T02:52:32.109Z,0
2017-05-13T02:53:32.372Z,0
2017-05-13T02:54:32.067Z,0
2017-05-13T02:55:32.165Z,0
2017-05-13T02:56:32.086Z,0
2017-05-13T02:57:32.412Z,0
2017-05-13T02:58:32.407Z,0
2017-05-13T02:59:32.151Z,0
2017-05-13T03:00:32.425Z,0
2017-05-13T03:01:32.429Z,0
2017-05-13T03:02:32.435Z,0
2017-05-13T03:03:32.455Z,0
2017-05-13T03:04:32.192Z,0
2017-05-13T03:05:32.148Z,0
2017-05-13T03:06:32.157Z,0
2017-05-13T03:07:32.521Z,0
2017-05-13T03:08:32.531Z,0
2017-05-13T03:09:32.492Z,0
2017-05-13T03:10:32.495Z,0
2017-05-13T03:11:32.183Z,0
2017-05-13T03:12:31.936Z,0
2017-05-13T03:13:32.249Z,0
2017-05-13T03:14:32.574Z,0
2017-05-13T03:15:32.528Z,0
2017-05-13T03:16:32.537Z,0
2017-05-13T03:17:32.542Z,0
2017-05-13T03:18:32.236Z,0
2017-05-13T03:19:32.606Z,0
2017-05-13T03:20:32.256Z,0
2017-05-13T03:21:32.309Z,0
2017-05-13T03:22:32.577Z,0
2017-05-13T03:23:32.643Z,0
2017-05-13T03:24:32.279Z,0
2017-05-13T03:25:32.599Z,0
2017-05-13T03:26:32.291Z,0
2017-05-13T03:27:32.303Z,0
2017-05-13T03:28:32.623Z,0
2017-05-13T03:29:32.630Z,0
2017-05-13T03:30:32.629Z,4
2017-05-13T03:31:32.644Z,4
2017-05-13T03:32:32.026Z,4
2017-05-13T03:33:32.653Z,4
2017-05-13T03:34:32.350Z,4
2017-05-13T03:35:32.407Z,4
2017-05-13T03:36:32.362Z,0
2017-05-13T03:37:32.371Z,4
2017-05-13T03:38:32.377Z,4
2017-05-13T03:39:32.388Z,4
2017-05-13T03:40:32.749Z,4
2017-05-13T03:41:32.448Z,4
2017-05-13T03:42:32.773Z,4
2017-05-13T03:43:32.777Z,8
2017-05-13T03:44:32.731Z,8
2017-05-13T03:45:32.735Z,8
2017-05-13T03:46:32.481Z,8
2017-05-13T03:47:32.752Z,12
2017-05-13T03:48:32.762Z,8
2017-05-13T03:49:32.193Z,12
2017-05-13T03:50:32.154Z,12
2017-05-13T03:51:32.167Z,12
2017-05-13T03:52:32.529Z,16
2017-05-13T03:53:32.572Z,16
2017-05-13T03:54:32.800Z,16
2017-05-13T03:55:32.809Z,20
2017-05-13T03:56:32.862Z,20
2017-05-13T03:57:32.825Z,20
2017-05-13T03:58:32.518Z,20
2017-05-13T03:59:32.526Z,24
2017-05-13T04:00:32.856Z,28
2017-05-13T04:01:32.852Z,28
2017-05-13T04:02:32.854Z,32
2017-05-13T04:03:32.241Z,36
2017-05-13T04:04:32.873Z,36
2017-05-13T04:05:32.877Z,40
2017-05-13T04:06:32.882Z,40
2017-05-13T04:07:32.577Z,44
2017-05-13T04:08:32.906Z,48
2017-05-13T04:09:32.651Z,48
2017-05-13T04:10:32.597Z,52
2017-05-13T04:11:32.917Z,56
2017-05-13T04:12:32.926Z,56
2017-05-13T04:13:33.042Z,60
2017-05-13T04:14:32.322Z,60
2017-05-13T04:15:32.381Z,60
2017-05-13T04:16:32.639Z,64
2017-05-13T04:17:32.972Z,64
2017-05-13T04:18:33.014Z,64
2017-05-13T04:19:32.980Z,64
2017-05-13T04:20:32.670Z,60
2017-05-13T04:21:32.675Z,60
2017-05-13T04:22:32.995Z,60
2017-05-13T04:23:32.740Z,64
2017-05-13T04:24:32.696Z,64
2017-05-13T04:25:32.702Z,68
2017-05-13T04:26:33.026Z,68
2017-05-13T04:27:32.722Z,68
2017-05-13T04:28:33.091Z,76
2017-05-13T04:29:32.786Z,80
2017-05-13T04:30:33.049Z,84
2017-05-13T04:31:33.055Z,96
2017-05-13T04:32:32.806Z,104
2017-05-13T04:33:33.113Z,108
2017-05-13T04:34:33.075Z,116
2017-05-13T04:35:33.085Z,124
2017-05-13T04:36:32.783Z,140
2017-05-13T04:37:33.097Z,164
2017-05-13T04:38:32.850Z,188
2017-05-13T04:39:32.801Z,224
2017-05-13T04:40:32.806Z,252
2017-05-13T04:41:32.816Z,280
2017-05-13T04:42:33.136Z,304
2017-05-13T04:43:33.145Z,324
2017-05-13T04:44:32.530Z,340
2017-05-13T04:45:33.155Z,336
2017-05-13T04:46:33.159Z,336
2017-05-13T04:47:33.219Z,348
2017-05-13T04:48:33.176Z,364
2017-05-13T04:49:32.929Z,400
2017-05-13T04:50:33.188Z,500
2017-05-13T04:51:32.883Z,1372
2017-05-13T04:52:33.204Z,1284
2017-05-13T04:53:32.637Z,648
2017-05-13T04:54:33.214Z,708
2017-05-13T04:55:33.222Z,660
2017-05-13T04:56:32.969Z,1776
2017-05-13T04:57:33.240Z,1676
2017-05-13T04:58:33.253Z,1632
2017-05-13T04:59:33.257Z,900
2017-05-13T05:00:32.957Z,668
2017-05-13T05:01:33.268Z,904
2017-05-13T05:02:32.967Z,840
2017-05-13T05:03:33.338Z,312
2017-05-13T05:04:32.664Z,288
2017-05-13T05:05:33.350Z,268
2017-05-13T05:06:32.994Z,256
2017-05-13T05:07:33.316Z,244
2017-05-13T05:08:33.326Z,244
2017-05-13T05:09:33.331Z,232
2017-05-13T05:10:33.332Z,228
2017-05-13T05:11:33.376Z,216
2017-05-13T05:12:33.346Z,208
2017-05-13T05:13:33.100Z,208
2017-05-13T05:14:33.051Z,212
2017-05-13T05:15:33.369Z,220
2017-05-13T05:16:33.387Z,228
2017-05-13T05:17:32.816Z,244
2017-05-13T05:18:33.495Z,256
2017-05-13T05:19:33.402Z,268
2017-05-13T05:20:33.097Z,276
2017-05-13T05:21:33.424Z,284
2017-05-13T05:22:33.114Z,296
2017-05-13T05:23:33.118Z,308
2017-05-13T05:24:33.442Z,308
2017-05-13T05:25:33.447Z,308
2017-05-13T05:26:33.451Z,316
2017-05-13T05:27:33.458Z,320
2017-05-13T05:28:33.153Z,332
2017-05-13T05:29:33.474Z,340
2017-05-13T05:30:33.214Z,352
2017-05-13T05:31:33.172Z,368
2017-05-13T05:32:33.543Z,384
2017-05-13T05:33:32.927Z,412
2017-05-13T05:34:33.244Z,452
2017-05-13T05:35:33.205Z,496
2017-05-13T05:36:33.522Z,520
2017-05-13T05:37:32.904Z,548
2017-05-13T05:38:33.534Z,564
2017-05-13T05:39:33.593Z,572
2017-05-13T05:40:33.298Z,588
2017-05-13T05:41:33.610Z,644
2017-05-13T05:42:33.570Z,632
2017-05-13T05:43:33.685Z,620
2017-05-13T05:44:33.577Z,600
2017-05-13T05:45:33.590Z,596
2017-05-13T05:46:33.282Z,588
2017-05-13T05:47:33.598Z,600
2017-05-13T05:48:33.620Z,608
2017-05-13T05:49:33.302Z,624
2017-05-13T05:50:33.670Z,616
2017-05-13T05:51:33.632Z,604
2017-05-13T05:52:33.322Z,604
2017-05-13T05:53:33.070Z,604
2017-05-13T05:54:33.339Z,612
2017-05-13T05:55:33.352Z,636
2017-05-13T05:56:33.355Z,656
2017-05-13T05:57:33.726Z,700
2017-05-13T05:58:33.681Z,776
2017-05-13T05:59:33.686Z,880
2017-05-13T06:00:33.382Z,996
2017-05-13T06:01:33.702Z,1120
2017-05-13T06:02:33.085Z,1248
2017-05-13T06:03:33.709Z,1408
2017-05-13T06:04:33.723Z,1612
2017-05-13T06:05:33.730Z,1616
2017-05-13T06:06:33.739Z,1620
2017-05-13T06:07:33.791Z,1708
2017-05-13T06:08:33.441Z,1848
2017-05-13T06:09:33.451Z,1976
2017-05-13T06:10:33.246Z,2204
2017-05-13T06:11:33.169Z,1796
2017-05-13T06:12:33.468Z,1644
2017-05-13T06:13:33.788Z,1960
2017-05-13T06:14:33.795Z,8520
2017-05-13T06:15:33.805Z,10960
2017-05-13T06:16:33.821Z,9948
2017-05-13T06:17:33.559Z,3612
2017-05-13T06:18:33.879Z,10664
2017-05-13T06:19:33.520Z,10076
2017-05-13T06:20:33.272Z,11092
2017-05-13T06:21:33.851Z,11736
2017-05-13T06:22:33.553Z,12136
2017-05-13T06:23:33.293Z,13920
2017-05-13T06:24:33.308Z,14560
2017-05-13T06:25:32.953Z,14688
2017-05-13T06:26:33.957Z,14720
2017-05-13T06:27:33.643Z,15200
2017-05-13T06:28:33.916Z,14336
2017-05-13T06:29:33.926Z,12832
2017-05-13T06:30:33.635Z,12096
2017-05-13T06:31:33.637Z,12384
2017-05-13T06:32:33.953Z,12576
2017-05-13T06:33:33.340Z,12864
2017-05-13T06:34:34.078Z,13312
2017-05-13T06:35:34.015Z,13600
2017-05-13T06:36:34.045Z,13248
2017-05-13T06:37:34.003Z,12928
2017-05-13T06:38:33.700Z,12640
2017-05-13T06:39:34.036Z,11936
2017-05-13T06:40:33.460Z,12448
2017-05-13T06:41:33.736Z,9728
2017-05-13T06:42:34.054Z,4660
2017-05-13T06:43:34.061Z,5204
2017-05-13T06:44:34.123Z,2144
2017-05-13T06:45:34.082Z,10944
2017-05-13T06:46:34.096Z,12032
2017-05-13T06:47:34.101Z,11584
2017-05-13T06:48:33.856Z,11808
2017-05-13T06:49:34.429Z,12224
2017-05-13T06:50:34.136Z,12384
2017-05-13T06:51:34.150Z,12288
2017-05-13T06:52:34.203Z,12480
2017-05-13T06:53:33.589Z,12480
2017-05-13T06:54:33.868Z,13024
2017-05-13T06:55:34.198Z,12832
2017-05-13T06:56:33.573Z,12480
2017-05-13T06:57:33.906Z,13056
2017-05-13T06:58:34.271Z,13696
2017-05-13T06:59:34.284Z,14400
2017-05-13T07:00:34.247Z,15104
2017-05-13T07:01:33.940Z,15456
2017-05-13T07:02:33.952Z,15936
2017-05-13T07:03:33.965Z,16544
2017-05-13T07:04:33.765Z,17408
2017-05-13T07:05:33.991Z,17696
2017-05-13T07:06:33.998Z,18592
2017-05-13T07:07:34.013Z,20064
2017-05-13T07:08:34.031Z,21632
2017-05-13T07:09:34.034Z,22144
2017-05-13T07:10:34.359Z,21312
2017-05-13T07:11:34.059Z,20960
2017-05-13T07:12:34.067Z,21600
2017-05-13T07:13:34.389Z,24064
2017-05-13T07:14:33.779Z,25248
2017-05-13T07:15:34.104Z,26720
2017-05-13T07:16:34.110Z,27904
2017-05-13T07:17:34.436Z,25216
2017-05-13T07:18:34.447Z,24608
2017-05-13T07:19:34.197Z,28992
2017-05-13T07:20:34.471Z,29792
2017-05-13T07:21:34.169Z,30016
2017-05-13T07:22:34.230Z,30368
2017-05-13T07:23:34.504Z,30240
2017-05-13T07:24:34.256Z,30368
2017-05-13T07:25:33.906Z,23936
2017-05-13T07:26:34.278Z,11004
2017-05-13T07:27:34.348Z,2284
2017-05-13T07:28:34.564Z,1296
2017-05-13T07:29:34.579Z,1196
2017-05-13T07:30:33.966Z,1052
2017-05-13T07:31:34.597Z,1556
2017-05-13T07:32:34.355Z,1048
2017-05-13T07:33:33.990Z,1040
2017-05-13T07:34:34.007Z,1356
2017-05-13T07:35:34.376Z,1368
2017-05-13T07:36:34.380Z,1124
2017-05-13T07:37:34.390Z,1248
2017-05-13T07:38:34.088Z,1228
2017-05-13T07:39:34.667Z,1252
2017-05-13T07:40:34.694Z,1196
2017-05-13T07:41:34.688Z,1344
2017-05-13T07:42:34.696Z,1140
2017-05-13T07:43:34.136Z,1152
2017-05-13T07:44:34.090Z,1148
2017-05-13T07:45:34.416Z,1168
2017-05-13T07:46:34.420Z,1052
2017-05-13T07:47:34.739Z,1184
2017-05-13T07:48:34.437Z,1324
2017-05-13T07:49:34.753Z,1684
2017-05-13T07:50:34.769Z,1620
2017-05-13T07:51:34.461Z,1520
2017-05-13T07:52:34.471Z,1656
2017-05-13T07:53:34.483Z,1756
2017-05-13T07:54:34.182Z,1672
2017-05-13T07:55:34.808Z,1632
2017-05-13T07:56:34.550Z,1604
2017-05-13T07:57:34.509Z,1784
2017-05-13T07:58:34.517Z,1580
2017-05-13T07:59:34.837Z,1472
2017-05-13T08:00:34.536Z,1168
2017-05-13T08:01:34.905Z,908
2017-05-13T08:02:34.600Z,1024
2017-05-13T08:03:34.555Z,1032
2017-05-13T08:04:34.930Z,964
2017-05-13T08:05:34.888Z,1196
2017-05-13T08:06:34.581Z,1300
2017-05-13T08:07:34.588Z,1124
2017-05-13T08:08:34.291Z,1096
2017-05-13T08:09:34.661Z,1156
2017-05-13T08:10:34.721Z,1260
2017-05-13T08:11:34.627Z,1160
2017-05-13T08:12:34.629Z,1228
2017-05-13T08:13:34.949Z,1344
2017-05-13T08:14:34.954Z,1488
2017-05-13T08:15:34.968Z,1380
2017-05-13T08:16:34.986Z,1232
2017-05-13T08:17:34.680Z,1100
2017-05-13T08:18:34.988Z,1032
2017-05-13T08:19:34.687Z,1036
2017-05-13T08:20:34.695Z,1024
2017-05-13T08:21:34.705Z,1052
2017-05-13T08:22:35.021Z,1012
2017-05-13T08:23:34.510Z,952
2017-05-13T08:24:34.725Z,964
2017-05-13T08:25:35.045Z,968
2017-05-13T08:26:35.104Z,952
2017-05-13T08:27:34.744Z,944
2017-05-13T08:28:35.068Z,980
2017-05-13T08:29:35.077Z,968
2017-05-13T08:30:34.768Z,888
2017-05-13T08:31:35.140Z,980
2017-05-13T08:32:34.789Z,1140
2017-05-13T08:33:34.800Z,1424
2017-05-13T08:34:35.116Z,1428
2017-05-13T08:35:35.116Z,1184
2017-05-13T08:36:35.175Z,1252
2017-05-13T08:37:34.876Z,1132
2017-05-13T08:38:35.151Z,1348
2017-05-13T08:39:35.163Z,1424
2017-05-13T08:40:35.210Z,1308
2017-05-13T08:41:34.287Z,1500
2017-05-13T08:42:35.219Z,1448
2017-05-13T08:43:35.181Z,1388
2017-05-13T08:44:35.229Z,1160
2017-05-13T08:45:35.197Z,1436
2017-05-13T08:46:34.944Z,1568
2017-05-13T08:47:35.264Z,1572
2017-05-13T08:48:35.225Z,1604
2017-05-13T08:49:35.279Z,1500
2017-05-13T08:50:34.665Z,1572
2017-05-13T08:51:34.978Z,1628
2017-05-13T08:52:35.248Z,1028
2017-05-13T08:53:34.635Z,1044
2017-05-13T08:54:35.265Z,908
2017-05-13T08:55:34.964Z,1032
2017-05-13T08:56:34.971Z,1824
2017-05-13T08:57:35.291Z,1740
2017-05-13T08:58:34.980Z,1836
2017-05-13T08:59:34.684Z,1932
2017-05-13T09:00:35.007Z,1344
2017-05-13T09:01:35.012Z,1576
2017-05-13T09:02:35.016Z,1996
2017-05-13T09:03:35.340Z,1332
2017-05-13T09:04:35.341Z,1408
2017-05-13T09:05:35.043Z,1260
2017-05-13T09:06:34.734Z,1348
2017-05-13T09:07:35.056Z,1216
2017-05-13T09:08:35.418Z,1172
2017-05-13T09:09:35.382Z,1276
2017-05-13T09:10:35.388Z,1292
2017-05-13T09:11:35.088Z,1212
2017-05-13T09:12:35.413Z,1276
2017-05-13T09:13:35.151Z,1628
2017-05-13T09:14:34.796Z,1968
2017-05-13T09:15:35.433Z,2000
2017-05-13T09:16:35.128Z,1340
2017-05-13T09:17:35.490Z,2012
2017-05-13T09:18:35.137Z,1932
2017-05-13T09:19:35.462Z,1484
2017-05-13T09:20:35.516Z,1528
2017-05-13T09:21:35.479Z,1296
2017-05-13T09:22:35.219Z,2008
2017-05-13T09:23:35.178Z,1948
2017-05-13T09:24:34.978Z,1132
2017-05-13T09:25:35.552Z,1088
2017-05-13T09:26:35.507Z,956
2017-05-13T09:27:35.524Z,1108
2017-05-13T09:28:35.529Z,1056
2017-05-13T09:29:34.965Z,1032
2017-05-13T09:30:35.545Z,1564
2017-05-13T09:31:34.926Z,1868
2017-05-13T09:32:34.939Z,1256
2017-05-13T09:33:35.250Z,2160
2017-05-13T09:34:35.608Z,1592
2017-05-13T09:35:35.629Z,1592
2017-05-13T09:36:35.585Z,1580
2017-05-13T09:37:35.646Z,1360
2017-05-13T09:38:35.294Z,2100
2017-05-13T09:39:35.615Z,1976
2017-05-13T09:40:34.998Z,1856
2017-05-13T09:41:35.637Z,1776
2017-05-13T09:42:35.016Z,1844
2017-05-13T09:43:35.334Z,1872
2017-05-13T09:44:35.358Z,1296
2017-05-13T09:45:35.653Z,1076
2017-05-13T09:46:35.665Z,1536
2017-05-13T09:47:35.677Z,1636
2017-05-13T09:48:35.682Z,1940
2017-05-13T09:49:35.427Z,1876
2017-05-13T09:50:35.383Z,1860
2017-05-13T09:51:35.706Z,1220
2017-05-13T09:52:35.719Z,912
2017-05-13T09:53:35.732Z,800
2017-05-13T09:54:35.726Z,788
2017-05-13T09:55:35.159Z,872
2017-05-13T09:56:35.118Z,1580
2017-05-13T09:57:35.751Z,1624
2017-05-13T09:58:35.758Z,936
2017-05-13T09:59:35.507Z,1808
2017-05-13T10:00:35.817Z,1828
2017-05-13T10:01:35.470Z,1024
2017-05-13T10:02:35.476Z,928
2017-05-13T10:03:35.534Z,928
2017-05-13T10:04:35.800Z,988
2017-05-13T10:05:35.495Z,1244
2017-05-13T10:06:35.819Z,1272
2017-05-13T10:07:35.876Z,928
2017-05-13T10:08:35.518Z,1628
2017-05-13T10:09:35.841Z,1708
2017-05-13T10:10:35.585Z,1736
2017-05-13T10:11:35.867Z,1720
2017-05-13T10:12:34.930Z,1728
2017-05-13T10:13:35.869Z,1616
2017-05-13T10:14:35.261Z,1620
2017-05-13T10:15:35.930Z,892
2017-05-13T10:16:35.941Z,1564
2017-05-13T10:17:35.997Z,1656
2017-05-13T10:18:35.971Z,1704
2017-05-13T10:19:35.916Z,1728
2017-05-13T10:20:35.973Z,1696
2017-05-13T10:21:35.623Z,1724
2017-05-13T10:22:35.938Z,1788
2017-05-13T10:23:35.683Z,1712
2017-05-13T10:24:35.645Z,1656
2017-05-13T10:25:35.676Z,920
2017-05-13T10:26:35.719Z,1036
2017-05-13T10:27:36.078Z,1644
2017-05-13T10:28:35.987Z,1032
2017-05-13T10:29:35.992Z,1048
2017-05-13T10:30:35.383Z,1820
2017-05-13T10:31:36.004Z,1684
2017-05-13T10:32:35.398Z,1600
2017-05-13T10:33:35.717Z,1620
2017-05-13T10:34:36.038Z,1632
2017-05-13T10:35:36.037Z,1536
2017-05-13T10:36:36.048Z,1460
2017-05-13T10:37:36.053Z,1408
2017-05-13T10:38:36.153Z,1396
2017-05-13T10:39:35.757Z,1412
2017-05-13T10:40:35.764Z,1448
2017-05-13T10:41:35.464Z,928
2017-05-13T10:42:35.474Z,1488
2017-05-13T10:43:36.102Z,796
2017-05-13T10:44:35.847Z,836
2017-05-13T10:45:36.115Z,808
2017-05-13T10:46:36.131Z,776
2017-05-13T10:47:36.133Z,796
2017-05-13T10:48:36.144Z,856
2017-05-13T10:49:36.200Z,888
2017-05-13T10:50:35.895Z,1628
2017-05-13T10:51:35.856Z,1672
2017-05-13T10:52:36.166Z,1592
2017-05-13T10:53:36.179Z,1208
2017-05-13T10:54:36.183Z,1224
2017-05-13T10:55:35.878Z,1248
2017-05-13T10:56:36.269Z,1176
2017-05-13T10:57:35.893Z,1092
2017-05-13T10:58:35.899Z,1012
2017-05-13T10:59:35.909Z,988
2017-05-13T11:00:36.227Z,1008
2017-05-13T11:01:36.254Z,1020
2017-05-13T11:02:36.242Z,956
2017-05-13T11:03:35.942Z,1328
2017-05-13T11:04:36.292Z,1548
2017-05-13T11:05:35.958Z,1488
2017-05-13T11:06:36.277Z,1516
2017-05-13T11:07:36.303Z,1648
2017-05-13T11:08:36.076Z,1748
2017-05-13T11:09:35.990Z,1760
2017-05-13T11:10:36.359Z,1652
2017-05-13T11:11:36.320Z,1036
2017-05-13T11:12:35.756Z,1392
2017-05-13T11:13:36.022Z,1496
2017-05-13T11:14:36.388Z,1472
2017-05-13T11:15:36.087Z,1472
2017-05-13T11:16:36.656Z,1424
2017-05-13T11:17:35.742Z,1376
2017-05-13T11:18:36.057Z,1404
2017-05-13T11:19:36.386Z,1448
2017-05-13T11:20:35.811Z,896
2017-05-13T11:21:36.397Z,920
2017-05-13T11:22:35.782Z,1536
2017-05-13T11:23:35.478Z,1452
2017-05-13T11:24:36.106Z,1412
2017-05-13T11:25:36.163Z,1428
2017-05-13T11:26:36.438Z,1364
2017-05-13T11:27:36.129Z,1340
2017-05-13T11:28:36.492Z,1372
2017-05-13T11:29:36.209Z,1256
2017-05-13T11:30:36.151Z,1120
2017-05-13T11:31:36.168Z,1040
2017-05-13T11:32:36.163Z,1392
2017-05-13T11:33:36.491Z,1080
2017-05-13T11:34:36.793Z,980
2017-05-13T11:35:36.190Z,956
2017-05-13T11:36:36.202Z,928
2017-05-13T11:37:36.209Z,836
2017-05-13T11:38:36.259Z,812
2017-05-13T11:39:36.230Z,752
2017-05-13T11:40:36.535Z,728
2017-05-13T11:41:36.546Z,788
2017-05-13T11:42:36.601Z,832
2017-05-13T11:43:36.609Z,900
2017-05-13T11:44:36.257Z,984
2017-05-13T11:45:36.059Z,1124
2017-05-13T11:46:35.964Z,1008
2017-05-13T11:47:35.970Z,1540
2017-05-13T11:48:36.286Z,1476
2017-05-13T11:49:36.610Z,1388
2017-05-13T11:50:36.612Z,1368
2017-05-13T11:51:36.648Z,1392
2017-05-13T11:52:36.681Z,1360
2017-05-13T11:53:36.734Z,1324
2017-05-13T11:54:36.645Z,1264
2017-05-13T11:55:36.029Z,1200
2017-05-13T11:56:36.659Z,1128
2017-05-13T11:57:36.668Z,1080
2017-05-13T11:58:36.676Z,1056
2017-05-13T11:59:36.374Z,1012
2017-05-13T12:00:36.692Z,1020
2017-05-13T12:01:36.388Z,996
2017-05-13T12:02:36.396Z,1012
2017-05-13T12:03:36.714Z,984
2017-05-13T12:04:36.409Z,980
2017-05-13T12:05:36.419Z,1024
2017-05-13T12:06:36.165Z,1048
2017-05-13T12:07:36.748Z,1044
2017-05-13T12:08:36.178Z,1020
2017-05-13T12:09:36.769Z,620
2017-05-13T12:10:36.765Z,692
2017-05-13T12:11:36.471Z,808
2017-05-13T12:12:36.161Z,1096
2017-05-13T12:13:36.166Z,1192
2017-05-13T12:14:36.808Z,896
2017-05-13T12:15:36.806Z,1284
2017-05-13T12:16:36.822Z,1264
2017-05-13T12:17:36.509Z,1224
2017-05-13T12:18:36.518Z,1180
2017-05-13T12:19:36.523Z,1216
2017-05-13T12:20:36.843Z,1208
2017-05-13T12:21:36.902Z,1256
2017-05-13T12:22:36.868Z,1228
2017-05-13T12:23:36.647Z,1160
2017-05-13T12:24:36.296Z,1100
2017-05-13T12:25:36.928Z,1060
2017-05-13T12:26:36.577Z,1032
2017-05-13T12:27:36.587Z,940
2017-05-13T12:28:36.960Z,928
2017-05-13T12:29:36.914Z,936
2017-05-13T12:30:36.919Z,960
2017-05-13T12:31:36.627Z,932
2017-05-13T12:32:36.671Z,868
2017-05-13T12:33:36.696Z,860
2017-05-13T12:34:36.954Z,840
2017-05-13T12:35:36.963Z,856
2017-05-13T12:36:36.966Z,844
2017-05-13T12:37:36.668Z,844
2017-05-13T12:38:36.978Z,836
2017-05-13T12:39:37.035Z,820
2017-05-13T12:40:36.691Z,852
2017-05-13T12:41:37.009Z,892
2017-05-13T12:42:37.054Z,916
2017-05-13T12:43:37.020Z,920
2017-05-13T12:44:36.461Z,888
2017-05-13T12:45:36.412Z,844
2017-05-13T12:46:36.790Z,764
2017-05-13T12:47:36.428Z,712
2017-05-13T12:48:37.154Z,688
2017-05-13T12:49:36.754Z,672
2017-05-13T12:50:36.816Z,660
2017-05-13T12:51:37.181Z,672
2017-05-13T12:52:36.777Z,648
2017-05-13T12:53:36.477Z,640
2017-05-13T12:54:36.789Z,644
2017-05-13T12:55:37.112Z,656
2017-05-13T12:56:37.114Z,692
2017-05-13T12:57:37.126Z,680
2017-05-13T12:58:37.135Z,688
2017-05-13T12:59:36.890Z,692
2017-05-13T13:00:37.147Z,660
2017-05-13T13:01:37.202Z,652
2017-05-13T13:02:37.218Z,676
2017-05-13T13:03:36.958Z,656
2017-05-13T13:04:37.176Z,672
2017-05-13T13:05:37.195Z,528
2017-05-13T13:06:37.248Z,544
2017-05-13T13:07:37.253Z,600
2017-05-13T13:08:37.206Z,608
2017-05-13T13:09:37.277Z,716
2017-05-13T13:10:36.914Z,704
2017-05-13T13:11:37.234Z,796
2017-05-13T13:12:36.979Z,824
2017-05-13T13:13:37.244Z,704
2017-05-13T13:14:36.942Z,800
2017-05-13T13:15:36.961Z,820
2017-05-13T13:16:36.650Z,676
2017-05-13T13:17:37.281Z,652
2017-05-13T13:18:37.340Z,620
2017-05-13T13:19:37.349Z,708
2017-05-13T13:20:37.095Z,732
2017-05-13T13:21:37.306Z,640
2017-05-13T13:22:37.320Z,732
2017-05-13T13:23:37.014Z,736
2017-05-13T13:24:37.330Z,660
2017-05-13T13:25:37.390Z,640
2017-05-13T13:26:37.351Z,792
2017-05-13T13:27:37.094Z,768
2017-05-13T13:28:37.053Z,764
2017-05-13T13:29:36.748Z,796
2017-05-13T13:30:36.756Z,700
2017-05-13T13:31:37.386Z,656
2017-05-13T13:32:37.079Z,648
2017-05-13T13:33:37.090Z,636
2017-05-13T13:34:37.144Z,668
2017-05-13T13:35:37.511Z,664
2017-05-13T13:36:37.421Z,660
2017-05-13T13:37:37.151Z,632
2017-05-13T13:38:37.123Z,600
2017-05-13T13:39:37.129Z,588
2017-05-13T13:40:37.139Z,584
2017-05-13T13:41:37.146Z,572
2017-05-13T13:42:37.157Z,508
2017-05-13T13:43:37.475Z,460
2017-05-13T13:44:37.178Z,532
2017-05-13T13:45:37.491Z,564
2017-05-13T13:46:37.497Z,600
2017-05-13T13:47:37.291Z,596
2017-05-13T13:48:37.512Z,600
2017-05-13T13:49:37.265Z,624